Guenther Schulte — VRGK8 — position and weather

sailwx.info

Track history (hours):
 
Tides and Currents Weather Stations Pressure Air Temp Water Temp Dewpoint Dewpoint Depression Visibility Wind Speed Wind Dir Waves Ship Positions

Guenther Schulte

Last reported at 2014-Aug-20 05:27 UTC. Time now 2014-Aug-29 12:19 UTC.
Position N 29°08' W 120°33'.
Warning: this ship's position is 9 days out of date.

Length 231 m; draft 11.4 m.

Type: Ship (hazmat cat C). MMSI: 477728800.

Date/timePositionNaut miles runAvg speedWind from/ knotsBaromVisibWave heightAir tempDewpointWater temp
2014-Aug-20 05:27N 29°08' W 120°33'1819.9
2014-Aug-20 04:33N 29°21' W 120°19'2019.6
2014-Aug-20 03:33N 29°36' W 120°04'2619.7
2014-Aug-20 02:15N 29°55' W 119°44'1620.1
2014-Aug-20 01:27N 30°07' W 119°32'2019.8
2014-Aug-20 00:27N 30°22' W 119°17'1719.3
2014-Aug-19 23:33N 30°35' W 119°04'7 7.4
2014-Aug-19 22:33N 30°40' W 118°58'2219.6
2014-Aug-19 21:26N 30°57' W 118°41'1719.5
2014-Aug-19 20:33N 31°12' W 118°31'1919.4
2014-Aug-19 19:33N 31°29' W 118°22'2019.7
2014-Aug-19 18:33N 31°47' W 118°12'2019.9
2014-Aug-19 17:32N 32°06' W 118°03'2020.0
2014-Aug-19 16:33N 32°24' W 117°53'1919.3
2014-Aug-19 15:33N 32°43' W 117°49'1817.7
2014-Aug-19 14:33N 32°60' W 117°53'1615.7
2014-Aug-19 13:33N 33°14' W 118°02'1514.5
2014-Aug-19 12:30N 33°28' W 118°10'1312.1
2014-Aug-19 11:25N 33°40' W 118°15'5 6.0
2014-Aug-19 10:31N 33°45' W 118°17'1 0.7
2014-Aug-19 09:33N 33°46' W 118°16'0 0.0
2014-Aug-19 08:21N 33°46' W 118°16'0 0.0
2014-Aug-19 07:27N 33°46' W 118°16'0 0.0
2014-Aug-19 06:27N 33°46' W 118°16'0 0.0
2014-Aug-19 05:33N 33°46' W 118°16'0 0.0
2014-Aug-19 04:33N 33°46' W 118°16'0 0.0
2014-Aug-19 03:30N 33°46' W 118°16'0 0.0
2014-Aug-19 02:33N 33°46' W 118°16'0 0.0
2014-Aug-19 01:33N 33°46' W 118°16'0 0.0
2014-Aug-19 00:33N 33°46' W 118°16'0 0.0
2014-Aug-18 23:33N 33°46' W 118°16'0 0.0
2014-Aug-18 22:33N 33°46' W 118°16'0 0.0
2014-Aug-18 21:33N 33°46' W 118°16'0 0.0
2014-Aug-18 20:33N 33°46' W 118°16'0 0.0
2014-Aug-18 19:33N 33°46' W 118°16'0 0.0
2014-Aug-18 17:27N 33°46' W 118°16'0 0.0
2014-Aug-18 16:33N 33°46' W 118°16'0 0.0
2014-Aug-18 15:33N 33°46' W 118°16'0 0.0
2014-Aug-18 14:33N 33°46' W 118°16'0 0.0
2014-Aug-18 13:33N 33°46' W 118°16'0 0.0
2014-Aug-18 12:33N 33°46' W 118°16'0 0.0
2014-Aug-18 11:33N 33°46' W 118°16'0 0.0
2014-Aug-18 10:33N 33°46' W 118°16'0 0.0
2014-Aug-18 08:27N 33°46' W 118°16'0 0.0
2014-Aug-18 06:27N 33°46' W 118°16'0 0.0
2014-Aug-18 05:33N 33°46' W 118°16'0 0.0
2014-Aug-18 04:09N 33°46' W 118°16'0 0.0
2014-Aug-18 00:24N 33°46' W 118°16'0 0.0
2014-Aug-17 17:33N 33°46' W 118°16'0 0.0
2014-Aug-17 16:33N 33°46' W 118°16'0 0.0
2014-Aug-17 15:21N 33°46' W 118°16'0 0.0
2014-Aug-17 14:33N 33°46' W 118°16'0 0.0
2014-Aug-17 13:33N 33°46' W 118°16'0 0.0
2014-Aug-17 12:33N 33°46' W 118°16'0 0.0
2014-Aug-17 11:33N 33°46' W 118°16'0 0.0
2014-Aug-17 10:33N 33°46' W 118°16'0 0.0
2014-Aug-17 09:33N 33°46' W 118°16'0 0.0
2014-Aug-17 08:33N 33°46' W 118°16'0 0.0
2014-Aug-17 07:33N 33°46' W 118°16'0 0.0
2014-Aug-17 06:33N 33°46' W 118°16'0 0.0
2014-Aug-17 05:33N 33°46' W 118°16'0 0.0
2014-Aug-17 04:15N 33°46' W 118°16'0 0.0
2014-Aug-17 03:33N 33°46' W 118°16'0 0.0
2014-Aug-17 02:33N 33°46' W 118°16'0 0.0
2014-Aug-17 01:27N 33°46' W 118°16'0 0.0
2014-Aug-16 23:27N 33°46' W 118°16'0 0.0
2014-Aug-16 22:33N 33°46' W 118°16'0 0.0
2014-Aug-16 20:30N 33°46' W 118°16'0 0.0
2014-Aug-16 19:24N 33°46' W 118°16'0 0.0
2014-Aug-16 18:27N 33°46' W 118°16'0 0.0
2014-Aug-16 17:33N 33°46' W 118°16'0 0.0
2014-Aug-16 16:33N 33°46' W 118°16'0 0.0
2014-Aug-16 15:33N 33°46' W 118°16'0 0.0
2014-Aug-16 14:06N 33°46' W 118°16'0 0.0
2014-Aug-16 13:18N 33°46' W 118°16'1 1.9
2014-Aug-16 12:33N 33°45' W 118°17'6 6.3
2014-Aug-16 11:33N 33°38' W 118°15'9 8.9
2014-Aug-16 10:33N 33°35' W 118°25'1211.6
2014-Aug-16 09:33N 33°36' W 118°39'1211.3
2014-Aug-16 08:28N 33°37' W 118°53'1011.3
2014-Aug-16 07:33N 33°36' W 119°06'1312.1
2014-Aug-16 06:31N 33°35' W 119°21'1212.6
2014-Aug-16 05:32N 33°33' W 119°35'1313.1
2014-Aug-16 04:33N 33°31' W 119°51'1312.7
2014-Aug-16 03:33N 33°29' W 120°06'1211.9
2014-Aug-16 02:33N 33°29' W 120°20'1312.6
2014-Aug-16 01:33N 33°35' W 120°33'1212.5
2014-Aug-16 00:33N 33°42' W 120°46'1312.0
2014-Aug-15 23:29N 33°52' W 120°56'1112.4
2014-Aug-15 22:33N 34°02' W 121°02'2612.6
2014-Aug-15 20:30N 34°25' W 121°17'1212.4
2014-Aug-15 19:33N 34°35' W 121°24'1212.2
2014-Aug-15 18:33N 34°46' W 121°31'1312.5
2014-Aug-15 17:32N 34°57' W 121°39'1212.6
2014-Aug-15 16:33N 35°08' W 121°46'1212.3
2014-Aug-15 15:33N 35°18' W 121°53'1211.8
2014-Aug-15 14:33N 35°29' W 121°60'1211.6
2014-Aug-15 13:33N 35°39' W 122°07'1211.8
2014-Aug-15 12:33N 35°49' W 122°14'1212.0
2014-Aug-15 11:33N 35°60' W 122°21'1212.2
2014-Aug-15 10:33N 36°11' W 122°28'1212.0
2014-Aug-15 09:33N 36°22' W 122°34'1212.3
2014-Aug-15 08:33N 36°33' W 122°39'1211.7
2014-Aug-15 07:33N 36°44' W 122°46'1212.0
2014-Aug-15 06:33N 36°55' W 122°52'1211.7
2014-Aug-15 05:33N 37°06' W 122°55'1111.1
2014-Aug-15 04:33N 37°15' W 122°48'1111.4
2014-Aug-15 03:33N 37°26' W 122°44'1312.6
2014-Aug-15 02:33N 37°39' W 122°44'1212.5
2014-Aug-15 01:34N 37°48' W 122°33'1110.5
2014-Aug-15 00:33N 37°49' W 122°19'0 0.3
2014-Aug-14 23:32N 37°49' W 122°19'0 0.0
2014-Aug-14 22:32N 37°49' W 122°19'0 0.0
2014-Aug-14 21:29N 37°49' W 122°19'0 0.0
2014-Aug-14 20:32N 37°49' W 122°19'0 0.0
2014-Aug-14 19:29N 37°49' W 122°19'0 0.0
2014-Aug-14 18:29N 37°49' W 122°19'0 0.0
2014-Aug-14 17:32N 37°49' W 122°19'0 0.0
2014-Aug-14 16:32N 37°49' W 122°19'0 0.0
2014-Aug-14 15:32N 37°49' W 122°19'0 0.0
2014-Aug-14 14:32N 37°49' W 122°19'0 0.0
2014-Aug-14 13:32N 37°49' W 122°19'0 0.0
2014-Aug-14 12:32N 37°49' W 122°19'0 0.0
2014-Aug-14 11:32N 37°49' W 122°19'0 0.0
2014-Aug-14 10:32N 37°49' W 122°19'0 0.0
2014-Aug-14 09:32N 37°49' W 122°19'0 0.0
2014-Aug-14 08:32N 37°49' W 122°19'0 0.0
2014-Aug-14 07:32N 37°49' W 122°19'0 0.0
2014-Aug-14 06:32N 37°49' W 122°19'0 0.0
2014-Aug-14 05:32N 37°49' W 122°19'0 0.0
2014-Aug-14 04:32N 37°49' W 122°19'0 0.0
2014-Aug-14 03:32N 37°49' W 122°19'0 0.0
2014-Aug-14 02:32N 37°49' W 122°19'0 0.0
2014-Aug-14 01:32N 37°49' W 122°19'0 0.0
2014-Aug-14 00:32N 37°49' W 122°19'0 0.2
2014-Aug-13 23:33N 37°49' W 122°19'9 9.4
2014-Aug-13 22:34N 37°48' W 122°31'1312.9
2014-Aug-13 21:33N 37°41' W 122°45'1110.9
2014-Aug-13 20:33N 37°35' W 122°56'1312.8
2014-Aug-13 19:31N 37°28' W 123°10'1212.7
2014-Aug-13 18:33N 37°20' W 123°22'1212.3
2014-Aug-13 17:33N 37°11' W 123°33'4 4.1
2014-Aug-13 16:27N 37°08' W 123°37'1311.8
2014-Aug-13 15:21N 36°58' W 123°48'1113.0
2014-Aug-13 14:32N 36°50' W 123°57'1413.9
2014-Aug-13 13:30N 36°40' W 124°09'15913.9
2014-Aug-13 02:04N 34°49' W 126°28'2313.4
2014-Aug-13 00:20N 34°35' W 126°51'  
Track history (hours):
 
Tides and Currents Weather Stations Pressure Air Temp Water Temp Dewpoint Dewpoint Depression Visibility Wind Speed Wind Dir Waves Ship Positions

Guenther Schulte

Last reported at 2014-Aug-20 05:27 UTC. Time now 2014-Aug-29 12:19 UTC.
Position N 29°08' W 120°33'.
Warning: this ship's position is 9 days out of date.

Length 231 m; draft 11.4 m.

Type: Ship (hazmat cat C). MMSI: 477728800.

Date/timePositionNaut miles runAvg speedWind from/ knotsBaromVisibWave heightAir tempDewpointWater temp
2014-Aug-20 05:27N 29°08' W 120°33'1819.9
2014-Aug-20 04:33N 29°21' W 120°19'2019.6
2014-Aug-20 03:33N 29°36' W 120°04'2619.7
2014-Aug-20 02:15N 29°55' W 119°44'1620.1
2014-Aug-20 01:27N 30°07' W 119°32'2019.8
2014-Aug-20 00:27N 30°22' W 119°17'1719.3
2014-Aug-19 23:33N 30°35' W 119°04'7 7.4
2014-Aug-19 22:33N 30°40' W 118°58'2219.6
2014-Aug-19 21:26N 30°57' W 118°41'1719.5
2014-Aug-19 20:33N 31°12' W 118°31'1919.4
2014-Aug-19 19:33N 31°29' W 118°22'2019.7
2014-Aug-19 18:33N 31°47' W 118°12'2019.9
2014-Aug-19 17:32N 32°06' W 118°03'2020.0
2014-Aug-19 16:33N 32°24' W 117°53'1919.3
2014-Aug-19 15:33N 32°43' W 117°49'1817.7
2014-Aug-19 14:33N 32°60' W 117°53'1615.7
2014-Aug-19 13:33N 33°14' W 118°02'1514.5
2014-Aug-19 12:30N 33°28' W 118°10'1312.1
2014-Aug-19 11:25N 33°40' W 118°15'5 6.0
2014-Aug-19 10:31N 33°45' W 118°17'1 0.7
2014-Aug-19 09:33N 33°46' W 118°16'0 0.0
2014-Aug-19 08:21N 33°46' W 118°16'0 0.0
2014-Aug-19 07:27N 33°46' W 118°16'0 0.0
2014-Aug-19 06:27N 33°46' W 118°16'0 0.0
2014-Aug-19 05:33N 33°46' W 118°16'0 0.0
2014-Aug-19 04:33N 33°46' W 118°16'0 0.0
2014-Aug-19 03:30N 33°46' W 118°16'0 0.0
2014-Aug-19 02:33N 33°46' W 118°16'0 0.0
2014-Aug-19 01:33N 33°46' W 118°16'0 0.0
2014-Aug-19 00:33N 33°46' W 118°16'0 0.0
2014-Aug-18 23:33N 33°46' W 118°16'0 0.0
2014-Aug-18 22:33N 33°46' W 118°16'0 0.0
2014-Aug-18 21:33N 33°46' W 118°16'0 0.0
2014-Aug-18 20:33N 33°46' W 118°16'0 0.0
2014-Aug-18 19:33N 33°46' W 118°16'0 0.0
2014-Aug-18 17:27N 33°46' W 118°16'0 0.0
2014-Aug-18 16:33N 33°46' W 118°16'0 0.0
2014-Aug-18 15:33N 33°46' W 118°16'0 0.0
2014-Aug-18 14:33N 33°46' W 118°16'0 0.0
2014-Aug-18 13:33N 33°46' W 118°16'0 0.0
2014-Aug-18 12:33N 33°46' W 118°16'0 0.0
2014-Aug-18 11:33N 33°46' W 118°16'0 0.0
2014-Aug-18 10:33N 33°46' W 118°16'0 0.0
2014-Aug-18 08:27N 33°46' W 118°16'0 0.0
2014-Aug-18 06:27N 33°46' W 118°16'0 0.0
2014-Aug-18 05:33N 33°46' W 118°16'0 0.0
2014-Aug-18 04:09N 33°46' W 118°16'0 0.0
2014-Aug-18 00:24N 33°46' W 118°16'0 0.0
2014-Aug-17 17:33N 33°46' W 118°16'0 0.0
2014-Aug-17 16:33N 33°46' W 118°16'0 0.0
2014-Aug-17 15:21N 33°46' W 118°16'0 0.0
2014-Aug-17 14:33N 33°46' W 118°16'0 0.0
2014-Aug-17 13:33N 33°46' W 118°16'0 0.0
2014-Aug-17 12:33N 33°46' W 118°16'0 0.0
2014-Aug-17 11:33N 33°46' W 118°16'0 0.0
2014-Aug-17 10:33N 33°46' W 118°16'0 0.0
2014-Aug-17 09:33N 33°46' W 118°16'0 0.0
2014-Aug-17 08:33N 33°46' W 118°16'0 0.0
2014-Aug-17 07:33N 33°46' W 118°16'0 0.0
2014-Aug-17 06:33N 33°46' W 118°16'0 0.0
2014-Aug-17 05:33N 33°46' W 118°16'0 0.0
2014-Aug-17 04:15N 33°46' W 118°16'0 0.0
2014-Aug-17 03:33N 33°46' W 118°16'0 0.0
2014-Aug-17 02:33N 33°46' W 118°16'0 0.0
2014-Aug-17 01:27N 33°46' W 118°16'0 0.0
2014-Aug-16 23:27N 33°46' W 118°16'0 0.0
2014-Aug-16 22:33N 33°46' W 118°16'0 0.0
2014-Aug-16 20:30N 33°46' W 118°16'0 0.0
2014-Aug-16 19:24N 33°46' W 118°16'0 0.0
2014-Aug-16 18:27N 33°46' W 118°16'0 0.0
2014-Aug-16 17:33N 33°46' W 118°16'0 0.0
2014-Aug-16 16:33N 33°46' W 118°16'0 0.0
2014-Aug-16 15:33N 33°46' W 118°16'0 0.0
2014-Aug-16 14:06N 33°46' W 118°16'0 0.0
2014-Aug-16 13:18N 33°46' W 118°16'1 1.9
2014-Aug-16 12:33N 33°45' W 118°17'6 6.3
2014-Aug-16 11:33N 33°38' W 118°15'9 8.9
2014-Aug-16 10:33N 33°35' W 118°25'1211.6
2014-Aug-16 09:33N 33°36' W 118°39'1211.3
2014-Aug-16 08:28N 33°37' W 118°53'1011.3
2014-Aug-16 07:33N 33°36' W 119°06'1312.1
2014-Aug-16 06:31N 33°35' W 119°21'1212.6
2014-Aug-16 05:32N 33°33' W 119°35'1313.1
2014-Aug-16 04:33N 33°31' W 119°51'1312.7
2014-Aug-16 03:33N 33°29' W 120°06'1211.9
2014-Aug-16 02:33N 33°29' W 120°20'1312.6
2014-Aug-16 01:33N 33°35' W 120°33'1212.5
2014-Aug-16 00:33N 33°42' W 120°46'1312.0
2014-Aug-15 23:29N 33°52' W 120°56'1112.4
2014-Aug-15 22:33N 34°02' W 121°02'2612.6
2014-Aug-15 20:30N 34°25' W 121°17'1212.4
2014-Aug-15 19:33N 34°35' W 121°24'1212.2
2014-Aug-15 18:33N 34°46' W 121°31'1312.5
2014-Aug-15 17:32N 34°57' W 121°39'1212.6
2014-Aug-15 16:33N 35°08' W 121°46'1212.3
2014-Aug-15 15:33N 35°18' W 121°53'1211.8
2014-Aug-15 14:33N 35°29' W 121°60'1211.6
2014-Aug-15 13:33N 35°39' W 122°07'1211.8
2014-Aug-15 12:33N 35°49' W 122°14'1212.0
2014-Aug-15 11:33N 35°60' W 122°21'1212.2
2014-Aug-15 10:33N 36°11' W 122°28'1212.0
2014-Aug-15 09:33N 36°22' W 122°34'1212.3
2014-Aug-15 08:33N 36°33' W 122°39'1211.7
2014-Aug-15 07:33N 36°44' W 122°46'1212.0
2014-Aug-15 06:33N 36°55' W 122°52'1211.7
2014-Aug-15 05:33N 37°06' W 122°55'1111.1
2014-Aug-15 04:33N 37°15' W 122°48'1111.4
2014-Aug-15 03:33N 37°26' W 122°44'1312.6
2014-Aug-15 02:33N 37°39' W 122°44'1212.5
2014-Aug-15 01:34N 37°48' W 122°33'1110.5
2014-Aug-15 00:33N 37°49' W 122°19'0 0.3
2014-Aug-14 23:32N 37°49' W 122°19'0 0.0
2014-Aug-14 22:32N 37°49' W 122°19'0 0.0
2014-Aug-14 21:29N 37°49' W 122°19'0 0.0
2014-Aug-14 20:32N 37°49' W 122°19'0 0.0
2014-Aug-14 19:29N 37°49' W 122°19'0 0.0
2014-Aug-14 18:29N 37°49' W 122°19'0 0.0
2014-Aug-14 17:32N 37°49' W 122°19'0 0.0
2014-Aug-14 16:32N 37°49' W 122°19'0 0.0
2014-Aug-14 15:32N 37°49' W 122°19'0 0.0
2014-Aug-14 14:32N 37°49' W 122°19'0 0.0
2014-Aug-14 13:32N 37°49' W 122°19'0 0.0
2014-Aug-14 12:32N 37°49' W 122°19'0 0.0
2014-Aug-14 11:32N 37°49' W 122°19'0 0.0
2014-Aug-14 10:32N 37°49' W 122°19'0 0.0
2014-Aug-14 09:32N 37°49' W 122°19'0 0.0
2014-Aug-14 08:32N 37°49' W 122°19'0 0.0
2014-Aug-14 07:32N 37°49' W 122°19'0 0.0
2014-Aug-14 06:32N 37°49' W 122°19'0 0.0
2014-Aug-14 05:32N 37°49' W 122°19'0 0.0
2014-Aug-14 04:32N 37°49' W 122°19'0 0.0
2014-Aug-14 03:32N 37°49' W 122°19'0 0.0
2014-Aug-14 02:32N 37°49' W 122°19'0 0.0
2014-Aug-14 01:32N 37°49' W 122°19'0 0.0
2014-Aug-14 00:32N 37°49' W 122°19'0 0.2
2014-Aug-13 23:33N 37°49' W 122°19'9 9.4
2014-Aug-13 22:34N 37°48' W 122°31'1312.9
2014-Aug-13 21:33N 37°41' W 122°45'1110.9
2014-Aug-13 20:33N 37°35' W 122°56'1312.8
2014-Aug-13 19:31N 37°28' W 123°10'1212.7
2014-Aug-13 18:33N 37°20' W 123°22'1212.3
2014-Aug-13 17:33N 37°11' W 123°33'4 4.1
2014-Aug-13 16:27N 37°08' W 123°37'1311.8
2014-Aug-13 15:21N 36°58' W 123°48'1113.0
2014-Aug-13 14:32N 36°50' W 123°57'1413.9
2014-Aug-13 13:30N 36°40' W 124°09'15913.9
2014-Aug-13 02:04N 34°49' W 126°28'2313.4
2014-Aug-13 00:20N 34°35' W 126°51'  

Dump ship's entire track history